Time;durP1;ratioP1;P1;durP2;ratioP2;P2;SDS_P1;SDS_P2;PMS_P1;PMS_P2;Temp;Humidity;BMP_temperature;BMP_pressure;BME280_temperature;BME280_humidity;BME280_pressure;Samples;Min_cycle;Max_cycle;Signal;HPM_P1;HPM_P2
2023/08/10 00:00:15;;;;;;;2.80;1.70;;;;;;;;;;4973068;28;20452;-52
2023/08/10 00:02:43;;;;;;;2.83;1.77;;;;;;;;;;4973288;28;20873;-51
2023/08/10 00:05:12;;;;;;;2.37;1.57;;;;;;;;;;4972850;28;20464;-52
2023/08/10 00:07:40;;;;;;;2.70;1.60;;;;;;;;;;4973765;28;20518;-52
2023/08/10 00:10:08;;;;;;;4.77;1.80;;;;;;;;;;4972960;28;20461;-52
2023/08/10 00:12:36;;;;;;;2.27;1.40;;;;;;;;;;4971883;28;20997;-52
2023/08/10 00:15:03;;;;;;;3.77;1.90;;;;;;;;;;4974813;28;20472;-52
2023/08/10 00:17:31;;;;;;;2.77;1.60;;;;;;;;;;4972555;28;20533;-52
2023/08/10 00:19:58;;;;;;;2.20;1.30;;;;;;;;;;4970835;28;20445;-52
2023/08/10 00:22:27;;;;;;;2.33;1.50;;;;;;;;;;4971113;28;20469;-53
2023/08/10 00:24:54;;;;;;;3.93;1.77;;;;;;;;;;4972693;28;20472;-53
2023/08/10 00:27:22;;;;;;;4.40;1.70;;;;;;;;;;4971926;28;20483;-52
2023/08/10 00:29:50;;;;;;;2.20;1.30;;;;;;;;;;4972717;28;20449;-52
2023/08/10 00:32:19;;;;;;;3.20;1.60;;;;;;;;;;4972335;28;20512;-53
2023/08/10 00:34:46;;;;;;;2.30;1.63;;;;;;;;;;4972883;28;20484;-52
2023/08/10 00:37:13;;;;;;;2.57;1.47;;;;;;;;;;4972717;28;20445;-52
2023/08/10 00:39:42;;;;;;;2.73;1.90;;;;;;;;;;4972138;28;20500;-52
2023/08/10 00:42:10;;;;;;;3.10;2.10;;;;;;;;;;4972822;28;20456;-53
2023/08/10 00:44:37;;;;;;;4.57;1.70;;;;;;;;;;4972705;28;20437;-52
2023/08/10 00:47:05;;;;;;;3.20;1.50;;;;;;;;;;4972611;28;20449;-53
2023/08/10 00:49:32;;;;;;;2.60;1.70;;;;;;;;;;4972851;28;20445;-52
2023/08/10 00:52:00;;;;;;;2.43;1.70;;;;;;;;;;4972298;28;20468;-51
2023/08/10 00:54:27;;;;;;;4.70;1.47;;;;;;;;;;4971803;28;20477;-52
2023/08/10 00:56:56;;;;;;;3.00;1.60;;;;;;;;;;4972642;28;20502;-52
2023/08/10 00:59:23;;;;;;;2.20;1.60;;;;;;;;;;4972550;28;20519;-53
2023/08/10 01:01:50;;;;;;;2.60;1.50;;;;;;;;;;4971924;28;20493;-52
2023/08/10 01:04:18;;;;;;;2.93;1.33;;;;;;;;;;4972422;28;20448;-52
2023/08/10 01:06:47;;;;;;;2.60;1.40;;;;;;;;;;4971873;28;20450;-52
2023/08/10 01:09:16;;;;;;;3.30;1.57;;;;;;;;;;4971730;28;20583;-52
2023/08/10 01:11:49;;;;;;;2.97;1.60;;;;;;;;;;4971049;28;20917;-53
2023/08/10 01:14:21;;;;;;;2.63;1.77;;;;;;;;;;4971791;28;20504;-54
2023/08/10 01:16:49;;;;;;;3.30;1.60;;;;;;;;;;4971868;28;20496;-53
2023/08/10 01:19:23;;;;;;;2.87;1.80;;;;;;;;;;4971751;28;20886;-53
2023/08/10 01:21:52;;;;;;;2.70;1.60;;;;;;;;;;4971254;28;20464;-53
2023/08/10 01:24:22;;;;;;;4.27;2.00;;;;;;;;;;4971961;28;20557;-54
2023/08/10 01:26:51;;;;;;;2.63;1.83;;;;;;;;;;4970297;28;20660;-53
2023/08/10 01:29:18;;;;;;;2.57;1.53;;;;;;;;;;4970819;28;20825;-55
2023/08/10 01:31:46;;;;;;;2.73;1.70;;;;;;;;;;4969370;28;20548;-53
2023/08/10 01:34:13;;;;;;;2.93;1.50;;;;;;;;;;4969827;28;21009;-53
2023/08/10 01:36:40;;;;;;;2.70;1.43;;;;;;;;;;4969967;28;20543;-53
2023/08/10 01:39:07;;;;;;;2.63;1.57;;;;;;;;;;4970539;28;20532;-53
2023/08/10 01:41:35;;;;;;;3.37;1.73;;;;;;;;;;4970145;28;20548;-53
2023/08/10 01:44:03;;;;;;;2.93;2.03;;;;;;;;;;4971046;28;20573;-53
2023/08/10 01:46:32;;;;;;;4.90;1.80;;;;;;;;;;4970572;28;20929;-53
2023/08/10 01:49:01;;;;;;;4.37;1.73;;;;;;;;;;4971772;28;20445;-53
2023/08/10 01:51:29;;;;;;;2.93;1.63;;;;;;;;;;4970423;28;20503;-53
2023/08/10 01:53:57;;;;;;;6.00;1.63;;;;;;;;;;4970041;28;20500;-53
2023/08/10 01:56:24;;;;;;;3.50;1.40;;;;;;;;;;4968640;28;20662;-53
2023/08/10 01:58:51;;;;;;;2.57;1.67;;;;;;;;;;4970225;28;20520;-53
2023/08/10 02:01:20;;;;;;;3.30;1.80;;;;;;;;;;4969213;28;20853;-55
2023/08/10 02:03:47;;;;;;;3.30;2.00;;;;;;;;;;4969691;28;20456;-55
2023/08/10 02:06:14;;;;;;;2.90;1.70;;;;;;;;;;4969483;28;20464;-55
2023/08/10 02:08:42;;;;;;;3.10;1.90;;;;;;;;;;4971033;28;20942;-52
2023/08/10 02:11:09;;;;;;;2.70;1.70;;;;;;;;;;4970580;28;20548;-53
2023/08/10 02:13:36;;;;;;;2.80;1.73;;;;;;;;;;4971117;28;20564;-53
2023/08/10 02:16:03;;;;;;;2.27;1.40;;;;;;;;;;4970595;28;20572;-53
2023/08/10 02:18:32;;;;;;;2.73;1.70;;;;;;;;;;4970584;28;20995;-53
2023/08/10 02:23:29;;;;;;;3.07;1.80;;;;;;;;;;4950673;29;20841;-55
2023/08/10 02:25:56;;;;;;;6.27;2.13;;;;;;;;;;4951628;29;20445;-54
2023/08/10 02:28:23;;;;;;;2.40;1.40;;;;;;;;;;4952471;29;20537;-54
2023/08/10 02:30:50;;;;;;;3.53;1.73;;;;;;;;;;4951639;28;20962;-52
2023/08/10 02:33:18;;;;;;;2.67;1.70;;;;;;;;;;4951707;29;20529;-53
2023/08/10 02:35:46;;;;;;;2.27;1.57;;;;;;;;;;4951838;29;20517;-53
2023/08/10 02:38:14;;;;;;;2.50;1.67;;;;;;;;;;4952108;29;20496;-53
2023/08/10 02:40:41;;;;;;;3.93;2.33;;;;;;;;;;4952177;29;20450;-53
2023/08/10 02:43:08;;;;;;;3.00;1.53;;;;;;;;;;4952204;28;20545;-54
2023/08/10 02:45:35;;;;;;;2.80;1.70;;;;;;;;;;4966284;28;20473;-54
2023/08/10 02:48:02;;;;;;;3.73;1.90;;;;;;;;;;4952347;28;20545;-55
2023/08/10 02:50:30;;;;;;;4.27;1.80;;;;;;;;;;4951520;29;21308;-54
2023/08/10 02:52:58;;;;;;;2.40;1.83;;;;;;;;;;4951673;28;20540;-55
2023/08/10 02:55:26;;;;;;;4.10;3.70;;;;;;;;;;4951619;29;20905;-55
2023/08/10 02:57:53;;;;;;;3.00;1.80;;;;;;;;;;4951531;29;20446;-56
2023/08/10 03:00:20;;;;;;;4.10;2.33;;;;;;;;;;4951695;29;20533;-55
2023/08/10 03:02:50;;;;;;;3.10;1.93;;;;;;;;;;4952617;28;20469;-55
2023/08/10 03:05:18;;;;;;;3.50;2.37;;;;;;;;;;4953438;29;20449;-54
2023/08/10 03:07:45;;;;;;;3.13;2.23;;;;;;;;;;4953283;29;20450;-54
2023/08/10 03:10:14;;;;;;;3.40;1.97;;;;;;;;;;4953275;29;20541;-53
2023/08/10 03:12:41;;;;;;;3.13;2.03;;;;;;;;;;4953738;29;20469;-53
2023/08/10 03:15:11;;;;;;;2.60;1.97;;;;;;;;;;4953545;29;20506;-55
2023/08/10 03:17:39;;;;;;;3.63;2.53;;;;;;;;;;4953952;29;20457;-55
2023/08/10 03:20:12;;;;;;;3.80;2.07;;;;;;;;;;4953147;29;20457;-54
2023/08/10 03:22:39;;;;;;;3.30;2.20;;;;;;;;;;4953466;29;20552;-55
2023/08/10 03:25:08;;;;;;;2.53;1.93;;;;;;;;;;4953602;29;20971;-56
2023/08/10 03:27:36;;;;;;;3.23;2.07;;;;;;;;;;4953381;29;20460;-54
2023/08/10 03:30:04;;;;;;;3.53;2.20;;;;;;;;;;4953220;29;20560;-53
2023/08/10 03:32:31;;;;;;;3.13;2.17;;;;;;;;;;4952902;29;20554;-54
2023/08/10 03:34:58;;;;;;;3.53;2.00;;;;;;;;;;4953541;29;20513;-53
2023/08/10 03:37:26;;;;;;;3.70;1.87;;;;;;;;;;4953302;29;20473;-53
2023/08/10 03:39:53;;;;;;;2.83;1.80;;;;;;;;;;4953348;29;20457;-53
2023/08/10 03:42:20;;;;;;;3.27;1.80;;;;;;;;;;4954691;28;20916;-53
2023/08/10 03:44:49;;;;;;;3.93;1.97;;;;;;;;;;4954956;29;20482;-53
2023/08/10 03:47:16;;;;;;;2.80;1.80;;;;;;;;;;4954551;29;21002;-53
2023/08/10 03:49:43;;;;;;;3.90;1.80;;;;;;;;;;4954421;29;20477;-54
2023/08/10 03:52:11;;;;;;;2.90;1.97;;;;;;;;;;4954383;29;20469;-53
2023/08/10 03:54:38;;;;;;;3.67;2.23;;;;;;;;;;4954206;28;20521;-53
2023/08/10 03:57:05;;;;;;;5.10;2.40;;;;;;;;;;4954405;29;21036;-54
2023/08/10 03:59:32;;;;;;;3.87;2.17;;;;;;;;;;4954113;29;20513;-54
2023/08/10 04:02:01;;;;;;;5.70;2.40;;;;;;;;;;4954693;28;20466;-55
2023/08/10 04:04:29;;;;;;;3.10;2.73;;;;;;;;;;4954650;29;20529;-53
2023/08/10 04:06:56;;;;;;;4.87;2.63;;;;;;;;;;4953977;29;20873;-54
2023/08/10 04:09:24;;;;;;;3.80;2.90;;;;;;;;;;4954033;29;20947;-55
2023/08/10 04:11:51;;;;;;;3.90;2.40;;;;;;;;;;4954353;29;20481;-53
2023/08/10 04:14:18;;;;;;;4.37;2.40;;;;;;;;;;4953502;28;20742;-53
2023/08/10 04:16:46;;;;;;;2.87;2.33;;;;;;;;;;4954023;29;20478;-53
2023/08/10 04:19:14;;;;;;;3.30;2.63;;;;;;;;;;4954258;29;20446;-53
2023/08/10 04:21:42;;;;;;;3.87;2.80;;;;;;;;;;4953015;28;20512;-53
2023/08/10 04:24:09;;;;;;;3.70;2.30;;;;;;;;;;4954357;29;20533;-53
2023/08/10 04:26:36;;;;;;;3.30;2.40;;;;;;;;;;4953789;29;20792;-53
2023/08/10 04:29:04;;;;;;;3.90;2.40;;;;;;;;;;4954237;29;20454;-53
2023/08/10 04:31:31;;;;;;;3.40;2.20;;;;;;;;;;4952866;29;20482;-56
2023/08/10 04:33:58;;;;;;;4.30;2.40;;;;;;;;;;4954348;29;20450;-53
2023/08/10 04:36:27;;;;;;;3.80;1.90;;;;;;;;;;4953566;29;20923;-53
2023/08/10 04:38:54;;;;;;;2.77;1.90;;;;;;;;;;4953907;29;20450;-53
2023/08/10 04:41:21;;;;;;;3.53;2.40;;;;;;;;;;4953440;28;20838;-53
2023/08/10 04:43:49;;;;;;;2.80;2.07;;;;;;;;;;4952594;29;20489;-53
2023/08/10 04:46:16;;;;;;;4.27;1.80;;;;;;;;;;4954172;29;20446;-53
2023/08/10 04:48:44;;;;;;;2.90;1.90;;;;;;;;;;4953488;29;20541;-54
2023/08/10 04:51:11;;;;;;;3.47;2.27;;;;;;;;;;4958736;28;20548;-55
2023/08/10 04:53:40;;;;;;;3.70;2.17;;;;;;;;;;4956476;28;20509;-53
2023/08/10 04:56:07;;;;;;;3.40;2.17;;;;;;;;;;4953298;29;20528;-55
2023/08/10 04:58:34;;;;;;;4.07;2.00;;;;;;;;;;4953278;29;20545;-55
2023/08/10 05:01:02;;;;;;;2.97;2.13;;;;;;;;;;4953709;28;20583;-54
2023/08/10 05:03:29;;;;;;;3.43;2.43;;;;;;;;;;4956036;28;20462;-54
2023/08/10 05:05:56;;;;;;;3.43;1.83;;;;;;;;;;4952714;29;20744;-54
2023/08/10 05:08:24;;;;;;;2.90;1.93;;;;;;;;;;4957067;28;20453;-55
2023/08/10 05:10:53;;;;;;;3.03;2.00;;;;;;;;;;4960760;28;20438;-51
2023/08/10 05:13:20;;;;;;;3.47;2.10;;;;;;;;;;4952854;28;20963;-53
2023/08/10 05:15:49;;;;;;;2.33;1.50;;;;;;;;;;4953404;29;20580;-53
2023/08/10 05:18:16;;;;;;;2.80;1.87;;;;;;;;;;4955922;28;20815;-53
2023/08/10 05:20:44;;;;;;;4.27;1.87;;;;;;;;;;4958030;28;20836;-53
2023/08/10 05:23:11;;;;;;;3.37;2.03;;;;;;;;;;4958159;28;20516;-53
2023/08/10 05:25:38;;;;;;;3.10;1.73;;;;;;;;;;4957926;28;20485;-53
2023/08/10 05:28:07;;;;;;;3.53;2.37;;;;;;;;;;4962549;28;20437;-53
2023/08/10 05:30:34;;;;;;;4.53;2.10;;;;;;;;;;4962776;28;20455;-53
2023/08/10 05:33:02;;;;;;;3.10;2.00;;;;;;;;;;4954017;28;20497;-55
2023/08/10 05:35:29;;;;;;;4.00;2.20;;;;;;;;;;4952946;29;20485;-53
2023/08/10 05:37:56;;;;;;;3.27;1.90;;;;;;;;;;4952606;29;20970;-53
2023/08/10 05:40:24;;;;;;;2.83;1.73;;;;;;;;;;4952497;29;20478;-54
2023/08/10 05:42:51;;;;;;;3.23;2.17;;;;;;;;;;4952664;28;20461;-56
2023/08/10 05:45:20;;;;;;;4.80;1.60;;;;;;;;;;4952885;29;20541;-55
2023/08/10 05:47:47;;;;;;;2.77;1.40;;;;;;;;;;4951507;28;20939;-51
2023/08/10 05:50:15;;;;;;;2.30;1.50;;;;;;;;;;4961713;28;20481;-55
2023/08/10 05:52:43;;;;;;;3.00;1.90;;;;;;;;;;4968617;28;20489;-55
2023/08/10 05:55:10;;;;;;;3.40;2.10;;;;;;;;;;4960529;28;20454;-55
2023/08/10 05:57:38;;;;;;;3.97;2.40;;;;;;;;;;4951729;29;20544;-54
2023/08/10 06:00:06;;;;;;;3.50;2.57;;;;;;;;;;4951058;29;20450;-56
2023/08/10 06:02:34;;;;;;;3.53;2.53;;;;;;;;;;4951750;28;20810;-54
2023/08/10 06:05:01;;;;;;;4.17;2.70;;;;;;;;;;4951650;29;20446;-56
2023/08/10 06:07:29;;;;;;;3.13;2.40;;;;;;;;;;4952079;29;20525;-53
2023/08/10 06:09:56;;;;;;;3.47;2.10;;;;;;;;;;4952108;29;20509;-53
2023/08/10 06:12:23;;;;;;;3.90;2.47;;;;;;;;;;4952126;28;20852;-53
2023/08/10 06:14:50;;;;;;;3.67;2.20;;;;;;;;;;4949864;29;20450;-53
2023/08/10 06:17:18;;;;;;;3.87;3.17;;;;;;;;;;4951972;29;20510;-55
2023/08/10 06:19:51;;;;;;;3.10;2.27;;;;;;;;;;4948978;29;20528;-54
2023/08/10 06:22:19;;;;;;;3.27;2.20;;;;;;;;;;4951362;28;20480;-55
2023/08/10 06:24:46;;;;;;;6.57;2.33;;;;;;;;;;4951230;29;20449;-53
2023/08/10 06:27:14;;;;;;;4.88;2.50;;;;;;;;;;4949903;29;20952;-54
2023/08/10 06:29:41;;;;;;;4.40;2.60;;;;;;;;;;4935991;29;20651;-56
2023/08/10 06:32:09;;;;;;;3.07;2.20;;;;;;;;;;4951623;29;20462;-56
2023/08/10 06:34:36;;;;;;;3.60;2.70;;;;;;;;;;4951919;29;20450;-54
2023/08/10 06:37:05;;;;;;;3.87;2.80;;;;;;;;;;4953724;28;20503;-56
2023/08/10 06:39:33;;;;;;;3.47;2.40;;;;;;;;;;4955038;29;20540;-57
2023/08/10 06:42:00;;;;;;;3.43;2.60;;;;;;;;;;4955068;28;20557;-54
2023/08/10 06:44:29;;;;;;;2.83;1.90;;;;;;;;;;4955702;29;21018;-57
2023/08/10 06:46:56;;;;;;;2.20;1.40;;;;;;;;;;4952772;29;20454;-56
2023/08/10 06:49:23;;;;;;;3.03;2.00;;;;;;;;;;4954285;29;20986;-56
2023/08/10 06:51:52;;;;;;;3.83;3.10;;;;;;;;;;4955149;28;20458;-57
2023/08/10 06:54:21;;;;;;;3.90;2.57;;;;;;;;;;4955596;29;20446;-54
2023/08/10 06:56:48;;;;;;;6.83;3.77;;;;;;;;;;4955318;29;20568;-58
2023/08/10 06:59:15;;;;;;;4.00;2.90;;;;;;;;;;4966148;28;20445;-55
2023/08/10 07:01:42;;;;;;;3.53;2.67;;;;;;;;;;4955708;28;20501;-54
2023/08/10 07:04:10;;;;;;;3.67;2.00;;;;;;;;;;4955515;29;20450;-56
2023/08/10 07:06:38;;;;;;;3.27;2.33;;;;;;;;;;4954923;29;20446;-54
2023/08/10 07:09:09;;;;;;;4.30;1.83;;;;;;;;;;4954803;29;20529;-54
2023/08/10 07:11:38;;;;;;;4.57;2.70;;;;;;;;;;4954633;29;20540;-54
2023/08/10 07:14:05;;;;;;;3.40;2.30;;;;;;;;;;4951179;29;20438;-54
2023/08/10 07:16:33;;;;;;;3.80;1.90;;;;;;;;;;4947422;29;21061;-55
2023/08/10 07:19:00;;;;;;;2.60;1.90;;;;;;;;;;4954403;29;20488;-54
2023/08/10 07:21:27;;;;;;;3.80;2.50;;;;;;;;;;4954118;28;20477;-55
2023/08/10 07:23:55;;;;;;;2.67;1.80;;;;;;;;;;4955297;29;20512;-54
2023/08/10 07:26:22;;;;;;;3.73;2.67;;;;;;;;;;4954678;29;20885;-54
2023/08/10 07:28:50;;;;;;;3.53;2.07;;;;;;;;;;4953826;29;20532;-55
2023/08/10 07:31:18;;;;;;;3.00;2.20;;;;;;;;;;4954389;28;21050;-54
2023/08/10 07:33:45;;;;;;;2.50;1.90;;;;;;;;;;4954438;29;20445;-56
2023/08/10 07:36:12;;;;;;;3.27;2.10;;;;;;;;;;4954639;29;20509;-55
2023/08/10 07:38:39;;;;;;;2.70;2.00;;;;;;;;;;4954198;29;20766;-56
2023/08/10 07:41:07;;;;;;;2.70;1.80;;;;;;;;;;4954114;29;20524;-56
2023/08/10 07:43:34;;;;;;;3.73;1.90;;;;;;;;;;4954617;29;20454;-55
2023/08/10 07:46:02;;;;;;;3.30;2.23;;;;;;;;;;4953934;29;20552;-54
2023/08/10 07:48:30;;;;;;;3.37;2.23;;;;;;;;;;4952961;28;20449;-54
2023/08/10 07:50:58;;;;;;;2.70;1.87;;;;;;;;;;4950395;28;20951;-57
2023/08/10 07:53:28;;;;;;;3.17;2.37;;;;;;;;;;4958990;28;20449;-54
2023/08/10 07:55:55;;;;;;;4.00;2.60;;;;;;;;;;4949484;29;20488;-54
2023/08/10 07:58:22;;;;;;;3.97;2.40;;;;;;;;;;4951445;29;20851;-56
2023/08/10 08:00:49;;;;;;;3.80;2.07;;;;;;;;;;4953423;29;20939;-56
2023/08/10 08:03:18;;;;;;;6.30;2.60;;;;;;;;;;4953866;29;20461;-57
2023/08/10 08:05:45;;;;;;;5.40;2.63;;;;;;;;;;4951936;29;20528;-54
2023/08/10 08:08:12;;;;;;;4.67;2.33;;;;;;;;;;4955368;28;20443;-55
2023/08/10 08:10:40;;;;;;;3.73;2.00;;;;;;;;;;4953356;29;20449;-54
2023/08/10 08:13:08;;;;;;;3.50;1.63;;;;;;;;;;4952896;28;20505;-54
2023/08/10 08:15:36;;;;;;;2.73;2.20;;;;;;;;;;4954100;29;20489;-55
2023/08/10 08:18:22;;;;;;;3.77;2.33;;;;;;;;;;4952380;29;20477;-54
2023/08/10 08:20:51;;;;;;;3.83;2.30;;;;;;;;;;4953413;29;20532;-54
2023/08/10 08:23:18;;;;;;;2.77;1.97;;;;;;;;;;4998278;23;20562;-53
2023/08/10 08:25:45;;;;;;;4.63;2.00;;;;;;;;;;4990753;28;20524;-55
2023/08/10 08:28:12;;;;;;;3.27;2.03;;;;;;;;;;4989408;28;20544;-54
2023/08/10 08:30:40;;;;;;;3.67;2.07;;;;;;;;;;4990470;28;20444;-54
2023/08/10 08:33:08;;;;;;;3.53;2.13;;;;;;;;;;4990572;28;20546;-55
2023/08/10 08:35:35;;;;;;;5.37;2.57;;;;;;;;;;4991154;28;20510;-54
2023/08/10 08:38:04;;;;;;;3.50;1.87;;;;;;;;;;4991019;28;20578;-55
2023/08/10 08:40:32;;;;;;;3.50;2.20;;;;;;;;;;4993955;28;20891;-53
2023/08/10 08:42:59;;;;;;;3.43;2.33;;;;;;;;;;4991329;28;20555;-54
2023/08/10 08:45:27;;;;;;;4.00;2.10;;;;;;;;;;4988325;28;20479;-54
2023/08/10 08:47:54;;;;;;;8.23;2.60;;;;;;;;;;4989579;28;20527;-54
2023/08/10 08:50:21;;;;;;;3.80;2.03;;;;;;;;;;4991742;28;20584;-54
2023/08/10 08:52:49;;;;;;;5.93;3.17;;;;;;;;;;4986786;28;20572;-54
2023/08/10 08:55:18;;;;;;;5.40;3.23;;;;;;;;;;4978436;28;20452;-55
2023/08/10 08:57:47;;;;;;;7.03;2.33;;;;;;;;;;4991356;28;20514;-56
2023/08/10 09:00:15;;;;;;;2.57;2.00;;;;;;;;;;4990382;28;20455;-54
2023/08/10 09:02:43;;;;;;;3.00;2.07;;;;;;;;;;4989232;28;20548;-55
2023/08/10 09:05:10;;;;;;;2.77;2.10;;;;;;;;;;4985616;28;20445;-54
2023/08/10 09:07:37;;;;;;;4.20;2.20;;;;;;;;;;4988471;28;20452;-55
2023/08/10 09:10:05;;;;;;;2.87;2.10;;;;;;;;;;4990242;28;20531;-55
2023/08/10 09:12:34;;;;;;;3.67;2.30;;;;;;;;;;4989506;28;20471;-56
2023/08/10 09:15:03;;;;;;;2.57;1.70;;;;;;;;;;4989956;28;20440;-55
2023/08/10 09:17:30;;;;;;;3.13;1.90;;;;;;;;;;4988491;28;20479;-55
2023/08/10 09:19:58;;;;;;;3.17;2.03;;;;;;;;;;4989964;28;20468;-55
2023/08/10 09:22:28;;;;;;;4.23;2.60;;;;;;;;;;4997478;28;20471;-55
2023/08/10 09:24:56;;;;;;;2.80;1.80;;;;;;;;;;5009047;28;20539;-54
2023/08/10 09:27:25;;;;;;;3.53;2.23;;;;;;;;;;5009260;28;20506;-54
2023/08/10 09:29:56;;;;;;;4.93;2.57;;;;;;;;;;5006822;28;20492;-55
2023/08/10 09:32:23;;;;;;;2.90;1.90;;;;;;;;;;5008099;28;20557;-54
2023/08/10 09:34:52;;;;;;;4.60;2.57;;;;;;;;;;5010066;28;20447;-55
2023/08/10 09:37:19;;;;;;;2.70;1.93;;;;;;;;;;5010367;28;20483;-55
2023/08/10 09:39:47;;;;;;;3.47;2.03;;;;;;;;;;5010768;28;20489;-55
2023/08/10 09:42:14;;;;;;;3.83;2.27;;;;;;;;;;5009095;28;20554;-56
2023/08/10 09:44:45;;;;;;;2.87;2.07;;;;;;;;;;5010616;28;20481;-56
2023/08/10 09:47:14;;;;;;;4.00;2.63;;;;;;;;;;5010727;28;20514;-54
2023/08/10 09:49:46;;;;;;;3.33;1.70;;;;;;;;;;5011000;28;20501;-55
2023/08/10 09:52:14;;;;;;;3.20;2.03;;;;;;;;;;5010572;28;20553;-54
2023/08/10 09:54:41;;;;;;;3.93;2.23;;;;;;;;;;5005696;28;20512;-54
2023/08/10 09:57:08;;;;;;;4.03;2.20;;;;;;;;;;5006889;28;20507;-56
2023/08/10 09:59:36;;;;;;;3.10;2.23;;;;;;;;;;5002346;28;20444;-55
2023/08/10 10:02:03;;;;;;;3.17;2.17;;;;;;;;;;5010396;28;20540;-56
2023/08/10 10:04:33;;;;;;;4.03;2.50;;;;;;;;;;5010185;28;20935;-55
2023/08/10 10:07:01;;;;;;;3.50;2.80;;;;;;;;;;5011182;28;20447;-56
2023/08/10 10:09:29;;;;;;;3.20;2.40;;;;;;;;;;5010658;28;20935;-54
2023/08/10 10:11:57;;;;;;;5.70;3.17;;;;;;;;;;5011880;28;20455;-56
2023/08/10 10:14:25;;;;;;;4.60;2.90;;;;;;;;;;5014692;28;20467;-54
2023/08/10 10:16:53;;;;;;;3.80;2.93;;;;;;;;;;5012136;28;20518;-55
2023/08/10 10:19:20;;;;;;;4.30;3.00;;;;;;;;;;5012629;28;20955;-55
2023/08/10 10:21:49;;;;;;;3.33;2.57;;;;;;;;;;5012615;28;20517;-55
2023/08/10 10:24:19;;;;;;;3.60;2.73;;;;;;;;;;5013428;28;20505;-55
2023/08/10 10:26:58;;;;;;;3.30;2.67;;;;;;;;;;5013017;28;20455;-55
2023/08/10 10:29:36;;;;;;;3.43;3.00;;;;;;;;;;5013521;28;21013;-55
2023/08/10 10:32:07;;;;;;;3.70;3.10;;;;;;;;;;5013244;28;20550;-54
2023/08/10 10:34:36;;;;;;;4.80;3.20;;;;;;;;;;5014719;28;20465;-55
2023/08/10 10:37:16;;;;;;;3.27;2.43;;;;;;;;;;5014499;28;20441;-54
2023/08/10 10:39:45;;;;;;;3.33;2.70;;;;;;;;;;5014311;28;20529;-54
2023/08/10 10:42:13;;;;;;;3.83;2.97;;;;;;;;;;5013434;28;20553;-54
2023/08/10 10:45:00;;;;;;;3.57;2.80;;;;;;;;;;5013872;28;21002;-55
2023/08/10 10:47:35;;;;;;;4.00;3.60;;;;;;;;;;5014426;28;20445;-55
2023/08/10 10:50:02;;;;;;;3.80;2.97;;;;;;;;;;5013860;28;20492;-55
2023/08/10 10:52:40;;;;;;;6.07;3.07;;;;;;;;;;5012796;28;20525;-55
2023/08/10 10:55:10;;;;;;;5.50;2.90;;;;;;;;;;5004850;28;20932;-54
2023/08/10 10:57:39;;;;;;;3.70;3.20;;;;;;;;;;4993824;28;20479;-55
2023/08/10 11:00:08;;;;;;;4.60;3.40;;;;;;;;;;4993136;28;20543;-54
2023/08/10 11:02:35;;;;;;;10.63;3.20;;;;;;;;;;4991427;28;20491;-54
2023/08/10 11:05:02;;;;;;;4.10;3.50;;;;;;;;;;4992210;28;20550;-54
2023/08/10 11:07:30;;;;;;;3.73;3.43;;;;;;;;;;4993485;28;20498;-55
2023/08/10 11:10:05;;;;;;;4.03;3.17;;;;;;;;;;4993281;28;20924;-54
2023/08/10 11:12:32;;;;;;;4.30;3.63;;;;;;;;;;4993948;28;20468;-55
2023/08/10 11:15:00;;;;;;;4.73;3.73;;;;;;;;;;4993523;28;20471;-54
2023/08/10 11:17:27;;;;;;;4.07;3.60;;;;;;;;;;4992663;28;20562;-55
2023/08/10 11:19:55;;;;;;;4.90;3.53;;;;;;;;;;4993073;28;20532;-55
2023/08/10 11:22:22;;;;;;;4.10;3.70;;;;;;;;;;5010052;28;20489;-55
2023/08/10 11:24:49;;;;;;;4.50;3.27;;;;;;;;;;5011802;28;20688;-54
2023/08/10 11:27:18;;;;;;;5.50;3.30;;;;;;;;;;5011599;28;20887;-54
2023/08/10 11:29:45;;;;;;;4.67;3.60;;;;;;;;;;5011627;28;20889;-54
2023/08/10 11:32:12;;;;;;;3.80;2.97;;;;;;;;;;5011315;28;20547;-54
2023/08/10 11:34:40;;;;;;;4.50;3.17;;;;;;;;;;5013544;28;20471;-54
2023/08/10 11:37:08;;;;;;;3.03;2.70;;;;;;;;;;5007228;28;20463;-54
2023/08/10 11:39:36;;;;;;;3.67;2.90;;;;;;;;;;5012761;28;20447;-54
2023/08/10 11:42:03;;;;;;;3.43;2.80;;;;;;;;;;5010288;28;20463;-54
2023/08/10 11:44:33;;;;;;;4.63;3.80;;;;;;;;;;5011399;28;20440;-54
2023/08/10 11:47:00;;;;;;;3.97;2.90;;;;;;;;;;5010639;28;20514;-54
2023/08/10 11:49:31;;;;;;;4.00;3.37;;;;;;;;;;5000948;28;20477;-54
2023/08/10 11:52:00;;;;;;;4.13;3.30;;;;;;;;;;5009167;28;20528;-54
2023/08/10 11:54:30;;;;;;;4.67;2.80;;;;;;;;;;5012672;28;20806;-55
2023/08/10 11:56:58;;;;;;;3.63;3.10;;;;;;;;;;5004603;28;20439;-56
2023/08/10 11:59:25;;;;;;;3.43;2.83;;;;;;;;;;5007532;28;20553;-54
2023/08/10 12:01:57;;;;;;;7.60;3.43;;;;;;;;;;5011920;28;20503;-55
2023/08/10 12:04:25;;;;;;;5.17;3.20;;;;;;;;;;5011698;28;20554;-54
2023/08/10 12:06:52;;;;;;;4.07;3.13;;;;;;;;;;5010962;28;20870;-54
2023/08/10 12:09:19;;;;;;;3.00;2.20;;;;;;;;;;5005386;28;20498;-55
2023/08/10 12:11:49;;;;;;;3.40;2.90;;;;;;;;;;5011288;28;20510;-55
2023/08/10 12:14:19;;;;;;;3.60;3.03;;;;;;;;;;5011122;28;20586;-54
2023/08/10 12:16:47;;;;;;;3.60;2.60;;;;;;;;;;5008557;28;20458;-54
2023/08/10 12:19:15;;;;;;;3.97;2.93;;;;;;;;;;5011850;28;20919;-54
2023/08/10 12:21:42;;;;;;;4.80;3.30;;;;;;;;;;5008462;28;21028;-55
2023/08/10 12:24:10;;;;;;;4.63;2.60;;;;;;;;;;5012471;28;20463;-54
2023/08/10 12:26:37;;;;;;;11.63;6.13;;;;;;;;;;5010957;28;20471;-56
2023/08/10 12:29:04;;;;;;;4.10;3.33;;;;;;;;;;5011080;28;21008;-55
2023/08/10 12:31:32;;;;;;;3.73;2.67;;;;;;;;;;5008456;28;20530;-55
2023/08/10 12:33:59;;;;;;;3.70;2.87;;;;;;;;;;5006736;28;20494;-55
2023/08/10 12:36:28;;;;;;;3.43;2.90;;;;;;;;;;5009700;28;20498;-54
2023/08/10 12:38:57;;;;;;;3.17;2.37;;;;;;;;;;5008398;28;20482;-54
2023/08/10 12:41:24;;;;;;;5.00;4.03;;;;;;;;;;5009799;28;20451;-55
2023/08/10 12:43:52;;;;;;;5.77;3.30;;;;;;;;;;5007109;28;20494;-56
2023/08/10 12:46:19;;;;;;;4.07;2.87;;;;;;;;;;5012825;28;20543;-55
2023/08/10 12:48:47;;;;;;;3.93;3.00;;;;;;;;;;5009756;28;20538;-54
2023/08/10 12:51:14;;;;;;;5.20;3.50;;;;;;;;;;5007945;28;20443;-54
2023/08/10 12:53:43;;;;;;;4.70;2.80;;;;;;;;;;5008294;28;20511;-55
2023/08/10 12:56:10;;;;;;;4.50;3.00;;;;;;;;;;5008433;28;20439;-54
2023/08/10 12:58:37;;;;;;;3.13;2.53;;;;;;;;;;5011290;28;20499;-54
2023/08/10 13:01:04;;;;;;;4.30;3.23;;;;;;;;;;5010831;28;20543;-54
2023/08/10 13:03:32;;;;;;;3.23;2.53;;;;;;;;;;5011043;28;20538;-54
2023/08/10 13:05:59;;;;;;;3.30;2.50;;;;;;;;;;5010294;28;20812;-54
2023/08/10 13:08:27;;;;;;;3.90;3.00;;;;;;;;;;5011230;28;20462;-55
2023/08/10 13:10:56;;;;;;;3.50;2.70;;;;;;;;;;5008381;28;20489;-53
2023/08/10 13:13:23;;;;;;;4.00;2.87;;;;;;;;;;5011663;28;20887;-54
2023/08/10 13:15:51;;;;;;;4.53;2.97;;;;;;;;;;5003610;28;20741;-54
2023/08/10 13:18:18;;;;;;;3.93;2.70;;;;;;;;;;5007880;28;20472;-54
2023/08/10 13:20:46;;;;;;;3.70;2.90;;;;;;;;;;5003312;28;20464;-53
2023/08/10 13:23:13;;;;;;;3.53;2.83;;;;;;;;;;5011052;28;20479;-54
2023/08/10 13:25:40;;;;;;;4.50;3.07;;;;;;;;;;5010924;28;20443;-56
2023/08/10 13:28:09;;;;;;;4.53;3.07;;;;;;;;;;5009982;28;20526;-55
2023/08/10 13:30:36;;;;;;;3.53;2.90;;;;;;;;;;5002712;28;20995;-54
2023/08/10 13:33:03;;;;;;;3.60;3.03;;;;;;;;;;5009820;28;20889;-55
2023/08/10 13:35:31;;;;;;;3.80;3.20;;;;;;;;;;5010937;28;20442;-54
2023/08/10 13:37:58;;;;;;;3.97;3.20;;;;;;;;;;5011468;28;20530;-55
2023/08/10 13:40:25;;;;;;;4.87;3.53;;;;;;;;;;5010479;28;20493;-54
2023/08/10 13:42:52;;;;;;;3.97;3.03;;;;;;;;;;5009940;28;20546;-55
2023/08/10 13:45:21;;;;;;;4.17;3.40;;;;;;;;;;5009684;28;20874;-55
2023/08/10 13:47:48;;;;;;;5.33;3.17;;;;;;;;;;5009905;28;20493;-54
2023/08/10 13:50:16;;;;;;;3.60;2.93;;;;;;;;;;5010062;28;20521;-55
2023/08/10 13:52:43;;;;;;;4.53;3.20;;;;;;;;;;5010621;28;20459;-54
2023/08/10 13:55:10;;;;;;;3.60;3.30;;;;;;;;;;5010738;28;20474;-54
2023/08/10 13:57:38;;;;;;;4.00;3.37;;;;;;;;;;5010733;28;20439;-55
2023/08/10 14:00:07;;;;;;;4.43;3.27;;;;;;;;;;5011014;28;20537;-55
2023/08/10 14:02:36;;;;;;;4.83;3.80;;;;;;;;;;5009292;28;20463;-55
2023/08/10 14:05:03;;;;;;;4.70;3.03;;;;;;;;;;5009643;28;20501;-55
2023/08/10 14:07:31;;;;;;;3.87;3.37;;;;;;;;;;5008579;28;20873;-54
2023/08/10 14:09:58;;;;;;;4.87;2.90;;;;;;;;;;5008770;28;20493;-55
2023/08/10 14:12:26;;;;;;;3.60;3.07;;;;;;;;;;5006614;28;20495;-54
2023/08/10 14:14:53;;;;;;;4.00;3.30;;;;;;;;;;5007555;28;20459;-54
2023/08/10 14:17:20;;;;;;;4.60;3.50;;;;;;;;;;5003130;28;20959;-54
2023/08/10 14:19:49;;;;;;;3.30;3.00;;;;;;;;;;5009779;28;20557;-54
2023/08/10 14:22:16;;;;;;;3.60;3.10;;;;;;;;;;5036772;23;20593;-57
2023/08/10 14:24:44;;;;;;;4.00;3.00;;;;;;;;;;5029452;28;20517;-57
2023/08/10 14:27:11;;;;;;;4.70;3.10;;;;;;;;;;5029993;28;20450;-57
2023/08/10 14:29:38;;;;;;;5.40;3.60;;;;;;;;;;5030459;28;20861;-57
2023/08/10 14:32:07;;;;;;;4.50;3.03;;;;;;;;;;5030325;28;20470;-58
2023/08/10 14:34:34;;;;;;;4.03;3.10;;;;;;;;;;5030248;28;20438;-56
2023/08/10 14:37:03;;;;;;;4.40;3.50;;;;;;;;;;5030246;28;20487;-58
2023/08/10 14:39:31;;;;;;;4.37;2.90;;;;;;;;;;5029340;28;20536;-56
2023/08/10 14:41:58;;;;;;;4.00;2.90;;;;;;;;;;5029997;28;20446;-57
2023/08/10 14:44:25;;;;;;;3.70;2.93;;;;;;;;;;5029450;28;21018;-57
2023/08/10 14:46:53;;;;;;;4.40;3.33;;;;;;;;;;5029906;28;20901;-57
2023/08/10 14:49:20;;;;;;;4.07;3.00;;;;;;;;;;5029803;28;20500;-57